createdAt,value
2023-03-06T00:00:33.915Z,7.70
2023-03-06T00:01:33.869Z,7.10
2023-03-06T00:02:33.908Z,7.90
2023-03-06T00:03:33.943Z,7.50
2023-03-06T00:04:33.856Z,7.70
2023-03-06T00:05:33.852Z,7.60
2023-03-06T00:06:33.809Z,7.60
2023-03-06T00:07:33.810Z,8.00
2023-03-06T00:08:33.819Z,7.70
2023-03-06T00:09:33.777Z,8.30
2023-03-06T00:10:33.769Z,7.30
2023-03-06T00:11:33.757Z,7.90
2023-03-06T00:12:33.753Z,8.30
2023-03-06T00:13:33.763Z,9.10
2023-03-06T00:14:33.718Z,9.10
2023-03-06T00:15:33.741Z,9.60
2023-03-06T00:16:33.781Z,10.10
2023-03-06T00:17:33.710Z,10.50
2023-03-06T00:18:33.756Z,10.30
2023-03-06T00:19:33.704Z,9.90
2023-03-06T00:20:33.652Z,9.50
2023-03-06T00:21:33.669Z,9.80
2023-03-06T00:22:33.647Z,9.90
2023-03-06T00:23:33.624Z,9.70
2023-03-06T00:24:33.625Z,10.20
2023-03-06T00:25:33.607Z,10.30
2023-03-06T00:26:33.630Z,10.50
2023-03-06T00:27:33.579Z,10.20
2023-03-06T00:28:33.566Z,9.80
2023-03-06T00:29:33.559Z,9.60
2023-03-06T00:30:33.563Z,10.00
2023-03-06T00:31:33.609Z,10.50
2023-03-06T00:32:33.565Z,10.60
2023-03-06T00:33:33.523Z,9.70
2023-03-06T00:34:33.520Z,9.70
2023-03-06T00:35:33.537Z,9.20
2023-03-06T00:36:33.489Z,9.00
2023-03-06T00:37:33.466Z,9.60
2023-03-06T00:38:33.502Z,8.90
2023-03-06T00:39:33.460Z,9.40
2023-03-06T00:40:33.530Z,9.10
2023-03-06T00:41:33.432Z,9.30
2023-03-06T00:42:33.409Z,9.70
2023-03-06T00:43:33.404Z,9.40
2023-03-06T00:44:33.412Z,9.70
2023-03-06T00:45:33.473Z,9.10
2023-03-06T00:46:33.374Z,8.90
2023-03-06T00:47:33.363Z,9.40
2023-03-06T00:48:33.350Z,9.50
2023-03-06T00:49:33.334Z,11.20
2023-03-06T00:50:33.407Z,10.90
2023-03-06T00:51:33.317Z,11.10
2023-03-06T00:52:33.303Z,11.50
2023-03-06T00:53:33.312Z,11.60
2023-03-06T00:54:33.336Z,12.40
2023-03-06T00:55:33.319Z,12.00
2023-03-06T00:56:33.258Z,13.80
2023-03-06T00:57:33.251Z,12.60
2023-03-06T00:58:33.242Z,12.10
2023-03-06T00:59:33.246Z,11.90
2023-03-06T01:00:33.246Z,12.70
2023-03-06T01:01:33.203Z,12.50
2023-03-06T01:02:33.274Z,12.40
2023-03-06T01:03:33.214Z,12.60
2023-03-06T01:04:33.185Z,13.40
2023-03-06T01:05:33.154Z,12.60
2023-03-06T01:06:33.189Z,12.00
2023-03-06T01:07:33.131Z,13.10
2023-03-06T01:08:33.119Z,12.60
2023-03-06T01:09:33.108Z,13.00
2023-03-06T01:10:33.134Z,12.90
2023-03-06T01:11:33.119Z,13.40
2023-03-06T01:12:33.094Z,12.80
2023-03-06T01:13:33.068Z,12.90
2023-03-06T01:14:33.094Z,13.20
2023-03-06T01:15:33.043Z,14.00
2023-03-06T01:16:33.079Z,12.90
2023-03-06T01:17:33.055Z,12.50
2023-03-06T01:18:33.011Z,13.00
2023-03-06T01:19:33.008Z,13.30
2023-03-06T01:20:32.993Z,13.30
2023-03-06T01:21:32.970Z,12.40
2023-03-06T01:22:33.006Z,12.90
2023-03-06T01:23:32.960Z,13.60
2023-03-06T01:24:32.960Z,13.40
2023-03-06T01:25:32.941Z,12.80
2023-03-06T01:26:32.919Z,12.90
2023-03-06T01:27:32.925Z,12.40
2023-03-06T01:28:32.904Z,13.00
2023-03-06T01:29:32.894Z,13.40
2023-03-06T01:30:32.886Z,13.20
2023-03-06T01:31:32.957Z,12.80
2023-03-06T01:32:32.923Z,13.20
2023-03-06T01:33:32.845Z,13.00
2023-03-06T01:34:32.825Z,11.90
2023-03-06T01:35:32.836Z,13.20
2023-03-06T01:36:32.808Z,12.50
2023-03-06T01:37:32.826Z,12.20
2023-03-06T01:38:32.817Z,12.10
2023-03-06T01:39:32.790Z,11.80
2023-03-06T01:40:32.773Z,12.20
2023-03-06T01:41:32.817Z,12.20
2023-03-06T01:42:32.769Z,11.00
2023-03-06T01:43:32.729Z,11.90
2023-03-06T01:44:32.743Z,12.00
2023-03-06T01:45:32.747Z,11.90
2023-03-06T01:46:32.715Z,12.30
2023-03-06T01:47:32.733Z,12.60
2023-03-06T01:48:32.707Z,12.70
2023-03-06T01:49:32.671Z,13.00
2023-03-06T01:50:32.677Z,13.20
2023-03-06T01:51:32.653Z,13.30
2023-03-06T01:52:32.643Z,13.30
2023-03-06T01:53:32.653Z,13.30
2023-03-06T01:54:32.632Z,12.50
2023-03-06T01:55:32.609Z,12.00
2023-03-06T01:56:32.620Z,12.60
2023-03-06T01:57:32.622Z,12.60
2023-03-06T01:58:32.592Z,12.30
2023-03-06T01:59:32.568Z,12.60
2023-03-06T02:00:32.550Z,11.70
2023-03-06T02:01:32.570Z,12.90
2023-03-06T02:02:32.547Z,12.60
2023-03-06T02:03:32.557Z,12.50
2023-03-06T02:04:32.520Z,12.00
2023-03-06T02:05:32.500Z,12.00
2023-03-06T02:06:32.483Z,12.80
2023-03-06T02:07:32.500Z,12.50
2023-03-06T02:08:32.506Z,12.30
2023-03-06T02:09:32.457Z,12.20
2023-03-06T02:10:32.927Z,12.30
2023-03-06T02:11:33.285Z,12.00
2023-03-06T02:12:32.593Z,13.00
2023-03-06T02:13:32.590Z,13.00
2023-03-06T02:14:32.622Z,11.60
2023-03-06T02:15:32.546Z,12.60
2023-03-06T02:16:32.554Z,12.50
2023-03-06T02:17:32.400Z,13.00
2023-03-06T02:18:32.434Z,12.10
2023-03-06T02:19:33.207Z,11.70
2023-03-06T02:20:32.530Z,13.10
2023-03-06T02:21:32.585Z,12.40
2023-03-06T02:22:32.486Z,12.70
2023-03-06T02:23:32.528Z,12.80
2023-03-06T02:24:32.464Z,12.10
2023-03-06T02:25:32.406Z,12.60
2023-03-06T02:26:32.437Z,12.70
2023-03-06T02:27:32.344Z,12.90
2023-03-06T02:28:32.377Z,12.60
2023-03-06T02:29:32.294Z,13.60
2023-03-06T02:30:32.485Z,12.70
2023-03-06T02:31:32.472Z,12.60
2023-03-06T02:32:32.383Z,12.40
2023-03-06T02:33:32.358Z,12.80
2023-03-06T02:34:32.201Z,12.60
2023-03-06T02:35:32.335Z,12.80
2023-03-06T02:36:32.321Z,12.30
2023-03-06T02:37:32.317Z,13.10
2023-03-06T02:38:32.272Z,13.80
2023-03-06T02:39:32.206Z,13.70
2023-03-06T02:40:32.264Z,12.90
2023-03-06T02:41:32.150Z,13.40
2023-03-06T02:42:40.195Z,12.40
2023-03-06T02:43:32.108Z,12.60
2023-03-06T02:44:32.084Z,12.80
2023-03-06T02:45:32.084Z,12.20
2023-03-06T02:46:32.062Z,13.10
2023-03-06T02:47:32.045Z,12.50
2023-03-06T02:48:32.016Z,13.30
2023-03-06T02:49:32.007Z,12.70
2023-03-06T02:50:31.995Z,12.90
2023-03-06T02:51:32.013Z,13.00
2023-03-06T02:52:31.999Z,12.90
2023-03-06T02:53:31.956Z,12.00
2023-03-06T02:54:31.953Z,12.90
2023-03-06T02:55:31.937Z,13.60
2023-03-06T02:56:31.942Z,14.40
2023-03-06T02:57:31.917Z,13.40
2023-03-06T02:58:31.930Z,13.60
2023-03-06T02:59:31.920Z,13.20
2023-03-06T03:00:31.904Z,13.70
2023-03-06T03:01:31.941Z,14.00
2023-03-06T03:02:31.858Z,13.40
2023-03-06T03:03:31.851Z,13.70
2023-03-06T03:04:31.863Z,13.70
2023-03-06T03:05:31.855Z,14.10
2023-03-06T03:06:31.816Z,13.70
2023-03-06T03:07:31.814Z,13.60
2023-03-06T03:08:31.801Z,14.20
2023-03-06T03:09:31.789Z,13.60
2023-03-06T03:10:31.788Z,13.60
2023-03-06T03:11:31.800Z,14.00
2023-03-06T03:12:31.753Z,14.90
2023-03-06T03:13:31.768Z,13.40
2023-03-06T03:14:31.745Z,13.90
2023-03-06T03:15:31.719Z,14.10
2023-03-06T03:16:31.714Z,14.60
2023-03-06T03:17:31.696Z,14.90
2023-03-06T03:18:31.710Z,15.40
2023-03-06T03:19:31.685Z,15.70
2023-03-06T03:20:31.673Z,15.30
2023-03-06T03:21:31.652Z,16.40
2023-03-06T03:22:31.638Z,16.10
2023-03-06T03:23:31.632Z,15.10
2023-03-06T03:24:31.649Z,15.70
2023-03-06T03:25:31.629Z,15.60
2023-03-06T03:26:31.603Z,17.10
2023-03-06T03:27:31.589Z,16.40
2023-03-06T03:28:31.658Z,15.90
2023-03-06T03:29:31.565Z,16.60
2023-03-06T03:30:31.592Z,16.40
2023-03-06T03:31:31.587Z,16.50
2023-03-06T03:32:31.587Z,15.80
2023-03-06T03:33:31.532Z,16.60
2023-03-06T03:34:31.518Z,16.00
2023-03-06T03:35:31.521Z,16.00
2023-03-06T03:36:31.493Z,16.20
2023-03-06T03:37:31.496Z,16.40
2023-03-06T03:38:31.466Z,16.20
2023-03-06T03:39:31.457Z,16.20
2023-03-06T03:40:31.455Z,16.40
2023-03-06T03:41:31.459Z,17.10
2023-03-06T03:42:31.453Z,16.80
2023-03-06T03:43:31.411Z,17.00
2023-03-06T03:44:31.413Z,18.00
2023-03-06T03:45:31.388Z,17.80
2023-03-06T03:46:31.436Z,17.00
2023-03-06T03:47:31.394Z,17.00
2023-03-06T03:48:31.362Z,16.90
2023-03-06T03:49:31.347Z,17.30
2023-03-06T03:50:31.341Z,17.40
2023-03-06T03:51:31.328Z,17.90
2023-03-06T03:52:31.339Z,18.40
2023-03-06T03:53:31.313Z,18.40
2023-03-06T03:54:31.369Z,18.60
2023-03-06T03:55:31.290Z,17.70
2023-03-06T03:56:31.275Z,17.30
2023-03-06T03:57:31.253Z,18.50
2023-03-06T03:58:31.272Z,18.80
2023-03-06T03:59:31.237Z,19.60
2023-03-06T04:00:31.219Z,20.10
2023-03-06T04:01:31.210Z,19.50
2023-03-06T04:02:31.216Z,20.30
2023-03-06T04:03:31.220Z,20.20
2023-03-06T04:04:31.234Z,20.20
2023-03-06T04:05:31.184Z,19.30
2023-03-06T04:06:31.169Z,19.20
2023-03-06T04:07:31.158Z,19.80
2023-03-06T04:08:31.171Z,19.40
2023-03-06T04:09:31.146Z,20.00
2023-03-06T04:10:31.114Z,20.10
2023-03-06T04:11:31.096Z,21.20
2023-03-06T04:12:31.092Z,20.00
2023-03-06T04:13:31.082Z,19.70
2023-03-06T04:14:31.090Z,19.70
2023-03-06T04:15:31.053Z,19.90
2023-03-06T04:16:31.124Z,19.00
2023-03-06T04:17:31.031Z,19.60
2023-03-06T04:18:31.066Z,19.30
2023-03-06T04:19:31.058Z,19.00
2023-03-06T04:20:31.046Z,19.80
2023-03-06T04:21:30.997Z,20.00
2023-03-06T04:22:30.982Z,19.20
2023-03-06T04:23:30.969Z,19.70
2023-03-06T04:24:30.957Z,19.90
2023-03-06T04:25:30.943Z,19.30
2023-03-06T04:26:30.958Z,19.60
2023-03-06T04:27:30.921Z,19.10
2023-03-06T04:28:30.917Z,20.20
2023-03-06T04:29:30.942Z,20.00
2023-03-06T04:30:30.912Z,20.30
2023-03-06T04:31:30.949Z,19.40
2023-03-06T04:32:30.928Z,20.00
2023-03-06T04:33:30.857Z,20.40
2023-03-06T04:34:30.889Z,19.70
2023-03-06T04:35:30.849Z,19.90
2023-03-06T04:36:30.840Z,20.10
2023-03-06T04:37:30.816Z,20.60
2023-03-06T04:38:31.054Z,20.00
2023-03-06T04:39:30.814Z,19.70
2023-03-06T04:40:30.784Z,20.00
2023-03-06T04:41:30.825Z,19.70
2023-03-06T04:42:30.762Z,19.60
2023-03-06T04:43:30.746Z,19.60
2023-03-06T04:44:30.741Z,20.00
2023-03-06T04:45:30.780Z,20.40
2023-03-06T04:46:30.740Z,20.60
2023-03-06T04:47:30.709Z,20.60
2023-03-06T04:48:30.691Z,20.50
2023-03-06T04:49:30.683Z,19.40
2023-03-06T04:50:30.702Z,21.10
2023-03-06T04:51:30.704Z,20.00
2023-03-06T04:52:30.686Z,20.10
2023-03-06T04:53:30.652Z,20.80
2023-03-06T04:54:30.630Z,19.90
2023-03-06T04:55:30.614Z,20.60
2023-03-06T04:56:30.617Z,20.70
2023-03-06T04:57:30.612Z,20.40
2023-03-06T04:58:30.593Z,20.30
2023-03-06T04:59:30.581Z,20.80
2023-03-06T05:00:30.632Z,20.20
2023-03-06T05:01:30.551Z,19.80
2023-03-06T05:02:30.604Z,20.80
2023-03-06T05:03:30.529Z,21.00
2023-03-06T05:04:30.545Z,20.70
2023-03-06T05:05:30.514Z,21.30
2023-03-06T05:06:30.514Z,20.60
2023-03-06T05:07:30.509Z,21.20
2023-03-06T05:08:30.470Z,20.60
2023-03-06T05:09:30.458Z,20.40
2023-03-06T05:10:30.457Z,21.50
2023-03-06T05:11:30.438Z,21.80
2023-03-06T05:12:30.448Z,21.70
2023-03-06T05:13:30.416Z,21.80
2023-03-06T05:14:30.403Z,22.50
2023-03-06T05:15:30.412Z,20.90
2023-03-06T05:16:30.455Z,21.10
2023-03-06T05:17:30.367Z,22.10
2023-03-06T05:18:30.359Z,21.40
2023-03-06T05:19:30.357Z,22.10
2023-03-06T05:20:30.337Z,22.10
2023-03-06T05:21:30.341Z,21.90
2023-03-06T05:22:30.426Z,22.20
2023-03-06T05:23:30.301Z,22.60
2023-03-06T05:24:30.292Z,23.40
2023-03-06T05:25:30.334Z,22.50
2023-03-06T05:26:30.285Z,23.70
2023-03-06T05:27:30.285Z,22.90
2023-03-06T05:28:30.250Z,24.70
2023-03-06T05:29:30.237Z,24.30
2023-03-06T05:30:30.264Z,23.80
2023-03-06T05:31:30.232Z,24.30
2023-03-06T05:32:30.257Z,24.30
2023-03-06T05:33:30.202Z,25.30
2023-03-06T05:34:30.189Z,25.30
2023-03-06T05:35:30.241Z,23.60
2023-03-06T05:36:30.167Z,24.80
2023-03-06T05:37:30.148Z,24.00
2023-03-06T05:38:30.176Z,24.60
2023-03-06T05:39:30.134Z,25.10
2023-03-06T05:40:30.123Z,24.40
2023-03-06T05:41:30.106Z,24.00
2023-03-06T05:42:30.110Z,24.70
2023-03-06T05:43:30.086Z,26.10
2023-03-06T05:44:30.093Z,25.60
2023-03-06T05:45:30.075Z,25.70
2023-03-06T05:46:30.077Z,25.90
2023-03-06T05:47:30.057Z,25.40
2023-03-06T05:48:30.033Z,25.50
2023-03-06T05:49:30.022Z,24.90
2023-03-06T05:50:30.042Z,24.60
2023-03-06T05:51:29.994Z,25.90
2023-03-06T05:52:29.989Z,26.00
2023-03-06T05:53:29.991Z,26.70
2023-03-06T05:54:29.986Z,26.80
2023-03-06T05:55:29.955Z,23.80
2023-03-06T05:56:29.966Z,25.60
2023-03-06T05:57:29.934Z,24.80
2023-03-06T05:58:29.922Z,26.60
2023-03-06T05:59:29.936Z,23.80
2023-03-06T06:00:29.924Z,27.10
2023-03-06T06:01:29.901Z,24.80
2023-03-06T06:02:30.064Z,27.90
2023-03-06T06:03:29.925Z,26.10
2023-03-06T06:04:29.882Z,25.60
2023-03-06T06:05:29.847Z,26.90
2023-03-06T06:06:29.827Z,24.90
2023-03-06T06:07:29.836Z,25.90
2023-03-06T06:08:29.813Z,26.40
2023-03-06T06:09:29.820Z,25.80
2023-03-06T06:10:29.802Z,25.70
2023-03-06T06:11:29.809Z,26.20
2023-03-06T06:12:29.780Z,26.40
2023-03-06T06:13:29.771Z,26.80
2023-03-06T06:14:29.751Z,26.60
2023-03-06T06:15:29.728Z,26.60
2023-03-06T06:16:29.729Z,25.60
2023-03-06T06:17:29.733Z,26.20
2023-03-06T06:18:29.712Z,25.50
2023-03-06T06:19:29.706Z,27.10
2023-03-06T06:20:29.689Z,26.90
2023-03-06T06:21:29.692Z,26.50
2023-03-06T06:22:29.670Z,26.80
2023-03-06T06:23:29.648Z,26.50
2023-03-06T06:24:29.650Z,25.30
2023-03-06T06:25:29.647Z,26.50
2023-03-06T06:26:29.636Z,27.20
2023-03-06T06:27:29.605Z,26.30
2023-03-06T06:28:29.601Z,27.80
2023-03-06T06:29:29.617Z,25.30
2023-03-06T06:30:29.571Z,27.60
2023-03-06T06:31:29.598Z,26.10
2023-03-06T06:32:29.608Z,26.00
2023-03-06T06:33:29.561Z,27.10
2023-03-06T06:34:29.561Z,26.20
2023-03-06T06:35:29.561Z,26.10
2023-03-06T06:36:29.648Z,28.70
2023-03-06T06:37:29.651Z,25.30
2023-03-06T06:38:29.477Z,27.70
2023-03-06T06:39:29.469Z,26.80
2023-03-06T06:40:29.480Z,26.90
2023-03-06T06:41:54.602Z,26.80
2023-03-06T06:42:36.300Z,26.90
2023-03-06T06:43:30.537Z,26.80
2023-03-06T06:44:29.588Z,27.30
2023-03-06T06:45:29.652Z,26.10
2023-03-06T06:47:18.153Z,27.60
2023-03-06T06:47:30.456Z,27.00
2023-03-06T06:48:29.520Z,27.60
2023-03-06T06:49:29.849Z,25.80
2023-03-06T06:50:29.757Z,27.50
2023-03-06T06:51:29.849Z,29.90
2023-03-06T06:52:30.019Z,28.20
2023-03-06T06:53:29.956Z,26.50
2023-03-06T06:54:29.412Z,27.60
2023-03-06T06:55:29.347Z,28.30
2023-03-06T06:56:29.374Z,27.20
2023-03-06T06:57:29.311Z,26.30
2023-03-06T06:58:29.283Z,28.30
2023-03-06T06:59:29.249Z,28.20
2023-03-06T07:00:29.283Z,27.00
2023-03-06T07:01:29.270Z,28.10
2023-03-06T07:02:29.220Z,27.50
2023-03-06T07:03:29.216Z,28.70
2023-03-06T07:04:29.227Z,29.10
2023-03-06T07:05:29.183Z,27.00
2023-03-06T07:06:29.215Z,27.90
2023-03-06T07:07:29.164Z,27.80
2023-03-06T07:08:29.152Z,28.50
2023-03-06T07:09:29.139Z,29.80
2023-03-06T07:10:29.141Z,27.90
2023-03-06T07:11:29.155Z,28.40
2023-03-06T07:12:29.134Z,29.60
2023-03-06T07:13:29.102Z,28.80
2023-03-06T07:14:29.106Z,28.50
2023-03-06T07:15:29.093Z,27.90
2023-03-06T07:16:29.073Z,27.80
2023-03-06T07:17:29.058Z,27.30
2023-03-06T07:18:29.044Z,26.90
2023-03-06T07:19:29.034Z,28.40
2023-03-06T07:20:29.096Z,28.00
2023-03-06T07:21:29.033Z,29.10
2023-03-06T07:22:31.975Z,29.60
2023-03-06T07:23:29.982Z,28.60
2023-03-06T07:24:28.974Z,29.80
2023-03-06T07:25:28.954Z,29.20
2023-03-06T07:26:29.004Z,29.20
2023-03-06T07:27:28.985Z,28.90
2023-03-06T07:28:28.934Z,30.00
2023-03-06T07:29:28.914Z,27.70
2023-03-06T07:30:29.032Z,29.30
2023-03-06T07:31:29.098Z,29.00
2023-03-06T07:32:28.960Z,29.30
2023-03-06T07:33:28.898Z,29.80
2023-03-06T07:34:28.872Z,29.20
2023-03-06T07:35:28.854Z,29.20
2023-03-06T07:36:28.853Z,28.10
2023-03-06T07:37:28.860Z,28.70
2023-03-06T07:38:28.867Z,28.30
2023-03-06T07:39:28.817Z,29.10
2023-03-06T07:40:28.801Z,27.30
2023-03-06T07:41:28.840Z,26.60
2023-03-06T07:42:28.887Z,28.50
2023-03-06T07:43:28.774Z,27.90
2023-03-06T07:44:28.793Z,28.60
2023-03-06T07:45:28.892Z,28.50
2023-03-06T07:46:29.269Z,28.70
2023-03-06T07:47:28.721Z,26.50
2023-03-06T07:48:28.724Z,26.00
2023-03-06T07:49:28.712Z,26.70
2023-03-06T07:50:28.726Z,27.50
2023-03-06T07:51:28.711Z,29.30
2023-03-06T07:52:28.686Z,27.60
2023-03-06T07:53:28.665Z,25.50
2023-03-06T07:54:28.684Z,26.60
2023-03-06T07:55:28.665Z,26.30
2023-03-06T07:56:28.671Z,25.40
2023-03-06T07:57:28.621Z,24.80
2023-03-06T07:58:28.684Z,25.90
2023-03-06T07:59:28.612Z,25.50
2023-03-06T08:00:28.585Z,26.40
2023-03-06T08:01:28.599Z,28.10
2023-03-06T08:02:28.579Z,26.60
2023-03-06T08:03:28.706Z,25.20
2023-03-06T08:04:30.052Z,26.90
2023-03-06T08:05:28.540Z,27.70
2023-03-06T08:06:28.546Z,28.40
2023-03-06T08:07:28.516Z,28.10
2023-03-06T08:08:28.532Z,28.70
2023-03-06T08:09:28.492Z,28.10
2023-03-06T08:10:28.479Z,28.10
2023-03-06T08:11:28.470Z,27.40
2023-03-06T08:12:28.452Z,27.40
2023-03-06T08:13:28.465Z,28.20
2023-03-06T08:14:28.425Z,28.00
2023-03-06T08:15:28.424Z,27.90
2023-03-06T08:16:28.497Z,26.80
2023-03-06T08:17:28.401Z,26.00
2023-03-06T08:18:28.453Z,27.00
2023-03-06T08:19:28.381Z,26.20
2023-03-06T08:20:28.362Z,24.70
2023-03-06T08:21:28.356Z,21.40
2023-03-06T08:22:28.347Z,19.40
2023-03-06T08:23:28.375Z,20.30
2023-03-06T08:24:28.322Z,18.40
2023-03-06T08:25:28.306Z,18.90
2023-03-06T08:26:28.298Z,18.60
2023-03-06T08:27:28.309Z,18.70
2023-03-06T08:28:28.299Z,17.90
2023-03-06T08:29:28.261Z,17.90
2023-03-06T08:30:28.260Z,17.80
2023-03-06T08:31:28.280Z,18.40
2023-03-06T08:32:28.312Z,17.70
2023-03-06T08:33:28.239Z,18.90
2023-03-06T08:34:28.241Z,18.00
2023-03-06T08:35:28.252Z,17.80
2023-03-06T08:36:28.188Z,18.20
2023-03-06T08:37:28.233Z,17.40
2023-03-06T08:38:28.180Z,18.40
2023-03-06T08:39:28.163Z,17.50
2023-03-06T08:40:28.137Z,18.00
2023-03-06T08:41:28.193Z,17.60
2023-03-06T08:42:28.144Z,17.50
2023-03-06T08:43:28.150Z,16.80
2023-03-06T08:44:28.149Z,18.00
2023-03-06T08:45:28.148Z,16.50
2023-03-06T08:46:28.100Z,17.60
2023-03-06T08:47:28.075Z,15.50
2023-03-06T08:48:28.084Z,17.10
2023-03-06T08:49:28.346Z,17.00
2023-03-06T08:50:28.067Z,17.00
2023-03-06T08:51:28.041Z,16.80
2023-03-06T08:52:36.122Z,16.80
2023-03-06T08:53:41.616Z,16.80
2023-03-06T08:54:28.988Z,16.50
2023-03-06T08:55:27.974Z,16.20
2023-03-06T08:56:28.006Z,15.60
2023-03-06T08:57:27.957Z,15.60
2023-03-06T08:58:27.952Z,16.10
2023-03-06T08:59:27.935Z,15.90
2023-03-06T09:00:28.008Z,15.20
2023-03-06T09:01:27.971Z,15.50
2023-03-06T09:02:28.014Z,15.30
2023-03-06T09:03:27.906Z,16.40
2023-03-06T09:04:27.907Z,16.20
2023-03-06T09:05:27.891Z,16.20
2023-03-06T09:06:27.943Z,15.70
2023-03-06T09:07:27.837Z,16.90
2023-03-06T09:08:27.844Z,17.30
2023-03-06T09:09:27.850Z,16.90
2023-03-06T09:10:27.889Z,17.30
2023-03-06T09:11:27.797Z,16.20
2023-03-06T09:12:29.271Z,16.20
2023-03-06T09:13:27.773Z,16.80
2023-03-06T09:14:27.798Z,16.90
2023-03-06T09:15:27.785Z,16.70
2023-03-06T09:16:27.867Z,16.60
2023-03-06T09:17:27.810Z,17.90
2023-03-06T09:18:27.776Z,16.90
2023-03-06T09:19:27.720Z,16.20
2023-03-06T09:20:27.761Z,17.30
2023-03-06T09:21:27.690Z,17.30
2023-03-06T09:22:27.727Z,16.60
2023-03-06T09:23:27.704Z,17.40
2023-03-06T09:24:27.677Z,17.80
2023-03-06T09:25:27.653Z,17.90
2023-03-06T09:26:39.531Z,17.70
2023-03-06T09:27:28.623Z,17.80
2023-03-06T09:28:27.671Z,18.00
2023-03-06T09:29:27.625Z,17.50
2023-03-06T09:30:27.589Z,18.60
2023-03-06T09:31:27.633Z,18.10
2023-03-06T09:32:27.659Z,18.90
2023-03-06T09:33:27.595Z,18.00
2023-03-06T09:34:27.586Z,18.60
2023-03-06T09:35:27.625Z,18.50
2023-03-06T09:36:27.542Z,18.80
2023-03-06T09:37:27.555Z,18.10
2023-03-06T09:38:27.555Z,18.30
2023-03-06T09:39:27.631Z,18.70
2023-03-06T09:40:27.486Z,18.50
2023-03-06T09:41:27.476Z,18.90
2023-03-06T09:42:27.479Z,18.70
2023-03-06T09:43:27.444Z,16.50
2023-03-06T09:44:27.460Z,17.90
2023-03-06T09:45:27.421Z,18.70
2023-03-06T09:46:27.504Z,17.10
2023-03-06T09:47:27.409Z,16.80
2023-03-06T09:48:27.390Z,16.30
2023-03-06T09:49:27.375Z,17.80
2023-03-06T09:50:27.367Z,16.70
2023-03-06T09:51:27.376Z,18.50
2023-03-06T09:52:27.338Z,17.00
2023-03-06T09:53:27.330Z,17.00
2023-03-06T09:54:27.377Z,15.90
2023-03-06T09:55:27.364Z,16.60
2023-03-06T09:56:27.307Z,14.60
2023-03-06T09:57:27.284Z,14.90
2023-03-06T09:58:27.312Z,15.60
2023-03-06T09:59:27.327Z,15.80
2023-03-06T10:00:27.253Z,14.80
2023-03-06T10:01:27.263Z,15.40
2023-03-06T10:02:27.367Z,15.30
2023-03-06T10:03:27.316Z,15.10
2023-03-06T10:04:27.273Z,15.40
2023-03-06T10:05:27.222Z,14.80
2023-03-06T10:06:27.223Z,15.50
2023-03-06T10:07:27.186Z,16.00
2023-03-06T10:08:27.169Z,16.20
2023-03-06T10:09:27.166Z,16.20
2023-03-06T10:10:27.194Z,16.20
2023-03-06T10:11:27.210Z,15.20
2023-03-06T10:12:27.141Z,15.30
2023-03-06T10:13:27.271Z,14.80
2023-03-06T10:14:27.110Z,14.90
2023-03-06T10:15:27.164Z,15.80
2023-03-06T10:16:27.089Z,14.90
2023-03-06T10:17:27.113Z,14.30
2023-03-06T10:18:27.061Z,15.20
2023-03-06T10:19:27.068Z,15.80
2023-03-06T10:20:27.067Z,15.10
2023-03-06T10:21:27.025Z,14.50
2023-03-06T10:22:27.037Z,14.60
2023-03-06T10:23:27.005Z,15.90
2023-03-06T10:24:26.999Z,14.10
2023-03-06T10:25:27.001Z,14.20
2023-03-06T10:26:27.106Z,14.70
2023-03-06T10:27:26.997Z,15.10
2023-03-06T10:28:26.954Z,15.30
2023-03-06T10:29:26.936Z,13.80
2023-03-06T10:30:26.951Z,14.80
2023-03-06T10:31:27.052Z,14.60
2023-03-06T10:32:30.398Z,14.30
2023-03-06T10:33:27.927Z,13.80
2023-03-06T10:34:26.883Z,13.10
2023-03-06T10:35:28.656Z,14.20
2023-03-06T10:36:26.904Z,14.50
2023-03-06T10:37:26.891Z,14.80
2023-03-06T10:38:26.848Z,14.40
2023-03-06T10:39:26.845Z,14.40
2023-03-06T10:40:26.812Z,15.10
2023-03-06T10:41:26.819Z,14.60
2023-03-06T10:42:28.931Z,14.80
2023-03-06T10:43:26.812Z,14.20
2023-03-06T10:44:26.783Z,15.00
2023-03-06T10:45:26.758Z,14.50
2023-03-06T10:46:26.811Z,14.40
2023-03-06T10:47:26.764Z,13.90
2023-03-06T10:48:26.732Z,14.30
2023-03-06T10:49:26.795Z,14.80
2023-03-06T10:50:26.736Z,14.40
2023-03-06T10:51:26.686Z,14.90
2023-03-06T10:52:26.688Z,15.00
2023-03-06T10:53:26.680Z,15.10
2023-03-06T10:54:26.655Z,14.00
2023-03-06T10:55:26.682Z,14.30
2023-03-06T10:56:26.647Z,14.50
2023-03-06T10:57:26.626Z,14.40
2023-03-06T10:58:26.663Z,14.40
2023-03-06T10:59:26.681Z,14.80
2023-03-06T11:00:26.646Z,15.50
2023-03-06T11:01:26.623Z,15.40
2023-03-06T11:02:26.589Z,15.10
2023-03-06T11:03:26.570Z,15.50
2023-03-06T11:04:26.610Z,15.30
2023-03-06T11:05:26.569Z,15.50
2023-03-06T11:06:26.535Z,15.40
2023-03-06T11:07:27.293Z,15.50
2023-03-06T11:08:26.529Z,15.30
2023-03-06T11:09:26.509Z,15.70
2023-03-06T11:10:26.524Z,16.30
2023-03-06T11:11:37.222Z,15.90
2023-03-06T11:12:27.482Z,15.30
2023-03-06T11:13:26.536Z,16.90
2023-03-06T11:14:27.744Z,16.20
2023-03-06T11:15:26.436Z,15.30
2023-03-06T11:16:26.474Z,15.40
2023-03-06T11:17:26.442Z,15.50
2023-03-06T11:18:26.396Z,15.80
2023-03-06T11:19:26.405Z,15.90
2023-03-06T11:20:26.381Z,15.40
2023-03-06T11:21:26.375Z,15.80
2023-03-06T11:22:26.383Z,15.60
2023-03-06T11:23:26.344Z,16.70
2023-03-06T11:24:26.334Z,15.30
2023-03-06T11:25:26.328Z,15.50
2023-03-06T11:26:26.307Z,16.00
2023-03-06T11:27:26.320Z,15.90
2023-03-06T11:28:26.436Z,15.20
2023-03-06T11:29:26.339Z,14.30
2023-03-06T11:30:26.337Z,14.40
2023-03-06T11:31:26.284Z,14.80
2023-03-06T11:32:26.322Z,13.80
2023-03-06T11:33:26.264Z,13.20
2023-03-06T11:34:26.214Z,12.90
2023-03-06T11:35:26.243Z,13.70
2023-03-06T11:36:26.188Z,14.60
2023-03-06T11:37:26.215Z,14.90
2023-03-06T11:38:26.189Z,12.80
2023-03-06T11:39:26.177Z,12.20
2023-03-06T11:40:26.167Z,12.00
2023-03-06T11:41:26.145Z,11.50
2023-03-06T11:42:26.126Z,10.50
2023-03-06T11:43:26.176Z,10.50
2023-03-06T11:44:26.097Z,10.50
2023-03-06T11:45:26.456Z,10.80
2023-03-06T11:46:26.296Z,11.10
2023-03-06T11:47:26.062Z,10.30
2023-03-06T11:48:26.045Z,10.80
2023-03-06T11:49:26.083Z,11.30
2023-03-06T11:50:26.030Z,10.70
2023-03-06T11:51:26.140Z,10.40
2023-03-06T11:52:26.008Z,11.20
2023-03-06T11:53:26.007Z,10.30
2023-03-06T11:54:25.991Z,11.30
2023-03-06T11:55:26.014Z,10.50
2023-03-06T11:56:25.973Z,11.40
2023-03-06T11:57:25.954Z,10.90
2023-03-06T11:58:25.950Z,10.00
2023-03-06T11:59:25.940Z,10.00
2023-03-06T12:00:25.949Z,10.50
2023-03-06T12:01:25.912Z,10.50
2023-03-06T12:02:25.988Z,9.50
2023-03-06T12:03:25.922Z,7.50
2023-03-06T12:04:25.904Z,8.40
2023-03-06T12:05:26.009Z,7.70
2023-03-06T12:06:25.870Z,7.70
2023-03-06T12:07:25.974Z,6.90
2023-03-06T12:08:25.832Z,6.80
2023-03-06T12:09:25.851Z,7.20
2023-03-06T12:10:25.823Z,6.90
2023-03-06T12:11:25.812Z,6.20
2023-03-06T12:12:25.825Z,6.60
2023-03-06T12:14:25.818Z,6.70
2023-03-06T12:15:25.766Z,6.90
2023-03-06T12:16:25.829Z,6.30
2023-03-06T12:17:25.771Z,6.10
2023-03-06T12:18:25.769Z,5.80
2023-03-06T12:19:25.706Z,6.20
2023-03-06T12:20:25.716Z,6.50
2023-03-06T12:21:25.693Z,6.40
2023-03-06T12:22:25.680Z,6.60
2023-03-06T12:23:25.705Z,6.00
2023-03-06T12:24:25.687Z,6.00
2023-03-06T12:25:25.664Z,6.10
2023-03-06T12:26:25.645Z,6.40
2023-03-06T12:27:25.638Z,6.20
2023-03-06T12:28:25.845Z,6.40
2023-03-06T12:29:25.635Z,6.60
2023-03-06T12:30:26.148Z,6.60
2023-03-06T12:31:25.638Z,7.00
2023-03-06T12:32:25.610Z,7.10
2023-03-06T12:33:25.587Z,6.80
2023-03-06T12:34:25.625Z,6.00
2023-03-06T12:35:25.664Z,5.60
2023-03-06T12:36:25.535Z,5.00
2023-03-06T12:37:25.529Z,5.10
2023-03-06T12:38:25.508Z,5.40
2023-03-06T12:39:25.532Z,4.70
2023-03-06T12:40:25.526Z,4.40
2023-03-06T12:41:25.502Z,4.90
2023-03-06T12:42:25.466Z,5.00
2023-03-06T12:43:25.468Z,5.10
2023-03-06T12:44:25.510Z,4.90
2023-03-06T12:45:25.434Z,5.20
2023-03-06T12:46:25.520Z,5.10
2023-03-06T12:47:25.399Z,5.50
2023-03-06T12:48:25.404Z,6.10
2023-03-06T12:49:32.062Z,5.60
2023-03-06T12:50:26.477Z,6.00
2023-03-06T12:51:25.397Z,5.70
2023-03-06T12:52:30.258Z,6.10
2023-03-06T12:53:26.349Z,7.00
2023-03-06T12:54:25.332Z,6.60
2023-03-06T12:55:26.049Z,7.10
2023-03-06T12:56:25.306Z,7.10